createdAt,value
2018-10-01T00:00:27.224Z,1005.85
2018-10-01T00:01:07.593Z,1005.87
2018-10-01T00:01:47.993Z,1005.83
2018-10-01T00:02:28.373Z,1005.81
2018-10-01T00:03:08.780Z,1005.82
2018-10-01T00:03:49.211Z,1005.8
2018-10-01T00:04:29.562Z,1005.82
2018-10-01T00:05:10.085Z,1005.8
2018-10-01T00:05:50.358Z,1005.83
2018-10-01T00:06:30.774Z,1005.82
2018-10-01T00:07:11.267Z,1005.81
2018-10-01T00:07:51.736Z,1005.83
2018-10-01T00:08:32.130Z,1005.83
2018-10-01T00:09:12.523Z,1005.83
2018-10-01T00:09:53.027Z,1005.82
2018-10-01T00:10:33.424Z,1005.79
2018-10-01T00:11:13.775Z,1005.79
2018-10-01T00:11:54.190Z,1005.82
2018-10-01T00:12:34.645Z,1005.75
2018-10-01T00:13:15.055Z,1005.78
2018-10-01T00:13:55.490Z,1005.77
2018-10-01T00:14:35.894Z,1005.79
2018-10-01T00:15:16.270Z,1005.77
2018-10-01T00:15:56.659Z,1005.76
2018-10-01T00:16:37.020Z,1005.78
2018-10-01T00:17:17.413Z,1005.78
2018-10-01T00:17:57.911Z,1005.84
2018-10-01T00:18:38.306Z,1005.82
2018-10-01T00:19:18.612Z,1005.8
2018-10-01T00:19:59.221Z,1005.81
2018-10-01T00:20:39.510Z,1005.81
2018-10-01T00:21:19.884Z,1005.83
2018-10-01T00:22:00.341Z,1005.86
2018-10-01T00:22:40.667Z,1005.8
2018-10-01T00:23:21.088Z,1005.81
2018-10-01T00:24:01.468Z,1005.77
2018-10-01T00:24:41.809Z,1005.76
2018-10-01T00:25:22.262Z,1005.79
2018-10-01T00:26:02.725Z,1005.78
2018-10-01T00:26:43.037Z,1005.71
2018-10-01T00:27:23.494Z,1005.77
2018-10-01T00:28:03.856Z,1005.79
2018-10-01T00:28:44.197Z,1005.79
2018-10-01T00:29:24.626Z,1005.78
2018-10-01T00:30:05.031Z,1005.77
2018-10-01T00:30:45.481Z,1005.79
2018-10-01T00:31:25.916Z,1005.77
2018-10-01T00:32:06.289Z,1005.76
2018-10-01T00:32:46.762Z,1005.79
2018-10-01T00:33:27.205Z,1005.77
2018-10-01T00:34:07.554Z,1005.77
2018-10-01T00:34:48.083Z,1005.75
2018-10-01T00:35:28.354Z,1005.74
2018-10-01T00:36:08.691Z,1005.74
2018-10-01T00:36:49.152Z,1005.74
2018-10-01T00:37:29.524Z,1005.74
2018-10-01T00:38:09.920Z,1005.75
2018-10-01T00:38:50.590Z,1005.73
2018-10-01T00:39:30.786Z,1005.74
2018-10-01T00:40:11.262Z,1005.73
2018-10-01T00:40:51.732Z,1005.71
2018-10-01T00:41:32.068Z,1005.69
2018-10-01T00:42:12.565Z,1005.7
2018-10-01T00:42:52.834Z,1005.78
2018-10-01T00:43:33.275Z,1005.76
2018-10-01T00:44:13.628Z,1005.78
2018-10-01T00:44:54.071Z,1005.79
2018-10-01T00:45:34.556Z,1005.83
2018-10-01T00:46:15.018Z,1005.79
2018-10-01T00:46:55.419Z,1005.76
2018-10-01T00:47:35.868Z,1005.74
2018-10-01T00:48:16.210Z,1005.72
2018-10-01T00:48:56.574Z,1005.76
2018-10-01T00:49:37.077Z,1005.79
2018-10-01T00:50:17.665Z,1005.8
2018-10-01T00:50:58.099Z,1005.75
2018-10-01T00:51:38.312Z,1005.82
2018-10-01T00:52:18.739Z,1005.83
2018-10-01T00:52:59.096Z,1005.84
2018-10-01T00:53:39.574Z,1005.79
2018-10-01T00:54:19.948Z,1005.79
2018-10-01T00:55:00.411Z,1005.78
2018-10-01T00:55:40.696Z,1005.81
2018-10-01T00:56:21.192Z,1005.76
2018-10-01T00:57:01.532Z,1005.75
2018-10-01T00:57:41.952Z,1005.77
2018-10-01T00:58:22.413Z,1005.8
2018-10-01T00:59:02.757Z,1005.78
2018-10-01T00:59:43.141Z,1005.8
2018-10-01T01:00:23.576Z,1005.8
2018-10-01T01:01:04.024Z,1005.78
2018-10-01T01:01:44.480Z,1005.82
2018-10-01T01:02:25.071Z,1005.79
2018-10-01T01:03:05.313Z,1005.79
2018-10-01T01:03:45.738Z,1005.8
2018-10-01T01:04:26.111Z,1005.75
2018-10-01T01:05:06.466Z,1005.71
2018-10-01T01:05:46.935Z,1005.72
2018-10-01T01:06:27.305Z,1005.72
2018-10-01T01:07:07.682Z,1005.77
2018-10-01T01:07:48.093Z,1005.72
2018-10-01T01:08:28.562Z,1005.75
2018-10-01T01:09:08.979Z,1005.68
2018-10-01T01:09:49.282Z,1005.68
2018-10-01T01:10:29.724Z,1005.77
2018-10-01T01:11:10.195Z,1005.73
2018-10-01T01:11:50.626Z,1005.68
2018-10-01T01:12:30.930Z,1005.71
2018-10-01T01:13:11.379Z,1005.7
2018-10-01T01:13:51.730Z,1005.67
2018-10-01T01:14:32.126Z,1005.67
2018-10-01T01:15:12.597Z,1005.68
2018-10-01T01:15:52.993Z,1005.61
2018-10-01T01:16:33.438Z,1005.65
2018-10-01T01:17:13.849Z,1005.63
2018-10-01T01:17:54.207Z,1005.67
2018-10-01T01:18:34.632Z,1005.67
2018-10-01T01:19:15.084Z,1005.65
2018-10-01T01:19:55.467Z,1005.61
2018-10-01T01:20:35.861Z,1005.64
2018-10-01T01:21:16.425Z,1005.65
2018-10-01T01:21:56.838Z,1005.64
2018-10-01T01:22:37.257Z,1005.64
2018-10-01T01:23:17.576Z,1005.62
2018-10-01T01:23:57.972Z,1005.69
2018-10-01T01:24:38.379Z,1005.67
2018-10-01T01:25:18.793Z,1005.66
2018-10-01T01:25:59.125Z,1005.65
2018-10-01T01:26:39.532Z,1005.68
2018-10-01T01:27:19.983Z,1005.69
2018-10-01T01:28:00.420Z,1005.69
2018-10-01T01:28:40.760Z,1005.69
2018-10-01T01:29:21.365Z,1005.72
2018-10-01T01:30:01.622Z,1005.71
2018-10-01T01:30:42.011Z,1005.76
2018-10-01T01:31:22.447Z,1005.75
2018-10-01T01:32:02.732Z,1005.74
2018-10-01T01:32:43.132Z,1005.74
2018-10-01T01:33:23.551Z,1005.7
2018-10-01T01:34:03.923Z,1005.75
2018-10-01T01:34:44.401Z,1005.74
2018-10-01T01:35:24.757Z,1005.76
2018-10-01T01:36:05.154Z,1005.75
2018-10-01T01:36:45.551Z,1005.73
2018-10-01T01:37:25.952Z,1005.75
2018-10-01T01:38:06.395Z,1005.74
2018-10-01T01:38:46.729Z,1005.74
2018-10-01T01:39:27.123Z,1005.74
2018-10-01T01:40:07.735Z,1005.71
2018-10-01T01:40:48.130Z,1005.75
2018-10-01T01:41:28.469Z,1005.74
2018-10-01T01:42:08.817Z,1005.75
2018-10-01T01:42:49.286Z,1005.74
2018-10-01T01:43:29.641Z,1005.72
2018-10-01T01:44:10.116Z,1005.75
2018-10-01T01:44:50.534Z,1005.78
2018-10-01T01:45:30.956Z,1005.8
2018-10-01T01:46:11.425Z,1005.8
2018-10-01T01:46:51.828Z,1005.8
2018-10-01T01:47:32.192Z,1005.78
2018-10-01T01:48:12.538Z,1005.75
2018-10-01T01:48:52.925Z,1005.74
2018-10-01T01:49:33.358Z,1005.73
2018-10-01T01:50:13.698Z,1005.72
2018-10-01T01:50:54.385Z,1005.76
2018-10-01T01:51:34.591Z,1005.7
2018-10-01T01:52:14.973Z,1005.72
2018-10-01T01:52:55.368Z,1005.68
2018-10-01T01:53:35.701Z,1005.69
2018-10-01T01:54:16.178Z,1005.66
2018-10-01T01:54:56.530Z,1005.67
2018-10-01T01:55:36.928Z,1005.67
2018-10-01T01:56:17.361Z,1005.68
2018-10-01T01:56:57.725Z,1005.65
2018-10-01T01:57:38.107Z,1005.65
2018-10-01T01:58:18.550Z,1005.7
2018-10-01T01:58:58.911Z,1005.68
2018-10-01T01:59:39.370Z,1005.65
2018-10-01T02:00:19.755Z,1005.67
2018-10-01T02:01:00.169Z,1005.73
2018-10-01T02:01:40.550Z,1005.73
2018-10-01T02:02:21.028Z,1005.69
2018-10-01T02:03:01.404Z,1005.7
2018-10-01T02:03:41.807Z,1005.71
2018-10-01T02:04:22.206Z,1005.71
2018-10-01T02:05:02.605Z,1005.7
2018-10-01T02:05:43.127Z,1005.72
2018-10-01T02:06:23.439Z,1005.72
2018-10-01T02:07:03.806Z,1005.73
2018-10-01T02:07:44.208Z,1005.75
2018-10-01T02:08:24.597Z,1005.75
2018-10-01T02:09:04.948Z,1005.76
2018-10-01T02:09:45.346Z,1005.75
2018-10-01T02:10:25.762Z,1005.76
2018-10-01T02:11:06.169Z,1005.74
2018-10-01T02:11:46.558Z,1005.8
2018-10-01T02:12:26.959Z,1005.72
2018-10-01T02:13:07.525Z,1005.77
2018-10-01T02:13:47.858Z,1005.77
2018-10-01T02:14:28.252Z,1005.74
2018-10-01T02:15:08.655Z,1005.77
2018-10-01T02:15:49.079Z,1005.76
2018-10-01T02:16:29.540Z,1005.74
2018-10-01T02:17:09.842Z,1005.78
2018-10-01T02:17:50.234Z,1005.77
2018-10-01T02:18:30.912Z,1005.76
2018-10-01T02:19:11.249Z,1005.78
2018-10-01T02:19:51.561Z,1005.83
2018-10-01T02:20:32.031Z,1005.82
2018-10-01T02:21:12.424Z,1005.86
2018-10-01T02:21:52.848Z,1005.8
2018-10-01T02:22:33.235Z,1005.85
2018-10-01T02:23:13.576Z,1005.87
2018-10-01T02:23:53.945Z,1005.85
2018-10-01T02:24:34.491Z,1005.83
2018-10-01T02:25:14.946Z,1005.84
2018-10-01T02:25:55.434Z,1005.82
2018-10-01T02:26:35.773Z,1005.82
2018-10-01T02:27:16.444Z,1005.82
2018-10-01T02:27:56.794Z,1005.86
2018-10-01T02:28:37.134Z,1005.82
2018-10-01T02:29:17.554Z,1005.8
2018-10-01T02:29:57.965Z,1005.79
2018-10-01T02:30:38.353Z,1005.83
2018-10-01T02:31:18.789Z,1005.82
2018-10-01T02:31:59.247Z,1005.83
2018-10-01T02:32:39.610Z,1005.8
2018-10-01T02:33:20.052Z,1005.83
2018-10-01T02:34:00.452Z,1005.82
2018-10-01T02:34:40.858Z,1005.86
2018-10-01T02:35:21.203Z,1005.8
2018-10-01T02:36:01.819Z,1005.79
2018-10-01T02:36:42.078Z,1005.81
2018-10-01T02:37:22.516Z,1005.82
2018-10-01T02:38:02.859Z,1005.8
2018-10-01T02:38:43.256Z,1005.81
2018-10-01T02:39:23.675Z,1005.8
2018-10-01T02:40:04.109Z,1005.84
2018-10-01T02:40:44.503Z,1005.87
2018-10-01T02:41:24.911Z,1005.88
2018-10-01T02:42:05.335Z,1005.86
2018-10-01T02:42:45.714Z,1005.89
2018-10-01T02:43:26.091Z,1005.92
2018-10-01T02:44:06.478Z,1005.86
2018-10-01T02:44:46.891Z,1005.87
2018-10-01T02:45:27.300Z,1005.88
2018-10-01T02:46:07.671Z,1005.86
2018-10-01T02:46:48.130Z,1005.85
2018-10-01T02:47:28.561Z,1005.84
2018-10-01T02:48:08.945Z,1005.86
2018-10-01T02:48:49.335Z,1005.85
2018-10-01T02:49:30.078Z,1005.84
2018-10-01T02:50:10.299Z,1005.85
2018-10-01T02:50:50.748Z,1005.79
2018-10-01T02:51:31.079Z,1005.81
2018-10-01T02:52:11.474Z,1005.83
2018-10-01T02:52:51.935Z,1005.82
2018-10-01T02:53:32.389Z,1005.81
2018-10-01T02:54:12.800Z,1005.8
2018-10-01T02:54:53.384Z,1005.8
2018-10-01T02:55:33.807Z,1005.8
2018-10-01T02:56:14.131Z,1005.81
2018-10-01T02:56:54.679Z,1005.79
2018-10-01T02:57:35.092Z,1005.84
2018-10-01T02:58:15.427Z,1005.81
2018-10-01T02:58:55.957Z,1005.81
2018-10-01T02:59:36.182Z,1005.77
2018-10-01T03:00:16.625Z,1005.84
2018-10-01T03:00:57.018Z,1005.76
2018-10-01T03:01:37.444Z,1005.79
2018-10-01T03:02:18.635Z,1005.8
2018-10-01T03:02:58.822Z,1005.83
2018-10-01T03:03:39.167Z,1005.83
2018-10-01T03:04:19.520Z,1005.82
2018-10-01T03:05:00.106Z,1005.76
2018-10-01T03:05:40.437Z,1005.79
2018-10-01T03:06:20.836Z,1005.73
2018-10-01T03:07:01.406Z,1005.74
2018-10-01T03:07:41.695Z,1005.75
2018-10-01T03:08:22.041Z,1005.73
2018-10-01T03:09:02.453Z,1005.74
2018-10-01T03:09:42.856Z,1005.78
2018-10-01T03:10:23.690Z,1005.71
2018-10-01T03:11:03.989Z,1005.77
2018-10-01T03:11:44.387Z,1005.74
2018-10-01T03:12:25.002Z,1005.75
2018-10-01T03:13:05.223Z,1005.76
2018-10-01T03:13:45.786Z,1005.78
2018-10-01T03:14:26.201Z,1005.72
2018-10-01T03:15:06.515Z,1005.74
2018-10-01T03:15:46.966Z,1005.77
2018-10-01T03:16:27.324Z,1005.76
2018-10-01T03:17:07.906Z,1005.73
2018-10-01T03:17:48.257Z,1005.76
2018-10-01T03:18:28.897Z,1005.77
2018-10-01T03:19:09.241Z,1005.8
2018-10-01T03:19:49.761Z,1005.78
2018-10-01T03:20:30.000Z,1005.75
2018-10-01T03:21:10.524Z,1005.82
2018-10-01T03:21:50.791Z,1005.8
2018-10-01T03:22:31.190Z,1005.81
2018-10-01T03:23:11.653Z,1005.8
2018-10-01T03:23:52.047Z,1005.81
2018-10-01T03:24:32.645Z,1005.8
2018-10-01T03:25:12.938Z,1005.74
2018-10-01T03:25:53.317Z,1005.79
2018-10-01T03:26:33.720Z,1005.75
2018-10-01T03:27:14.332Z,1005.76
2018-10-01T03:27:54.659Z,1005.77
2018-10-01T03:28:35.022Z,1005.78
2018-10-01T03:29:15.452Z,1005.79
2018-10-01T03:29:55.882Z,1005.77
2018-10-01T03:30:36.159Z,1005.74
2018-10-01T03:31:18.475Z,1005.78
2018-10-01T03:31:58.372Z,1005.77
2018-10-01T03:32:38.742Z,1005.74
2018-10-01T03:33:19.252Z,1005.79
2018-10-01T03:33:59.840Z,1005.75
2018-10-01T03:34:40.054Z,1005.78
2018-10-01T03:35:20.514Z,1005.81
2018-10-01T03:36:00.874Z,1005.8
2018-10-01T03:36:41.347Z,1005.83
2018-10-01T03:37:21.681Z,1005.83
2018-10-01T03:38:02.091Z,1005.81
2018-10-01T03:38:42.665Z,1005.82
2018-10-01T03:39:23.027Z,1005.84
2018-10-01T03:40:03.509Z,1005.85
2018-10-01T03:40:43.767Z,1005.81
2018-10-01T03:41:24.172Z,1005.8
2018-10-01T03:42:04.561Z,1005.78
2018-10-01T03:42:44.964Z,1005.8
2018-10-01T03:43:25.405Z,1005.81
2018-10-01T03:44:05.816Z,1005.82
2018-10-01T03:44:46.301Z,1005.79
2018-10-01T03:45:26.572Z,1005.79
2018-10-01T03:46:07.042Z,1005.8
2018-10-01T03:46:47.424Z,1005.8
2018-10-01T03:47:27.881Z,1005.81
2018-10-01T03:48:08.263Z,1005.8
2018-10-01T03:48:48.699Z,1005.8
2018-10-01T03:49:29.182Z,1005.83
2018-10-01T03:50:10.732Z,1005.78
2018-10-01T03:50:51.113Z,1005.82
2018-10-01T03:51:31.568Z,1005.8
2018-10-01T03:52:12.210Z,1005.86
2018-10-01T03:52:52.640Z,1005.87
2018-10-01T03:53:33.123Z,1005.85
2018-10-01T03:54:13.564Z,1005.82
2018-10-01T03:54:53.943Z,1005.9
2018-10-01T03:55:34.449Z,1005.85
2018-10-01T03:56:14.820Z,1005.88
2018-10-01T03:56:55.463Z,1005.86
2018-10-01T03:57:36.026Z,1005.87
2018-10-01T03:58:16.501Z,1005.85
2018-10-01T03:58:57.393Z,1005.92
2018-10-01T03:59:37.706Z,1005.9
2018-10-01T04:00:18.754Z,1005.87
2018-10-01T04:00:59.613Z,1005.89
2018-10-01T04:01:39.774Z,1005.87
2018-10-01T04:02:21.728Z,1005.86
2018-10-01T04:03:02.378Z,1005.85
2018-10-01T04:03:42.714Z,1005.86
2018-10-01T04:04:23.118Z,1005.85
2018-10-01T04:05:03.565Z,1005.86
2018-10-01T04:05:44.982Z,1005.94
2018-10-01T04:06:25.481Z,1005.87
2018-10-01T04:07:06.099Z,1005.9
2018-10-01T04:07:46.877Z,1005.88
2018-10-01T04:08:26.983Z,1005.85
2018-10-01T04:09:07.443Z,1005.85
2018-10-01T04:09:48.330Z,1005.87
2018-10-01T04:10:28.915Z,1005.88
2018-10-01T04:11:10.878Z,1005.89
2018-10-01T04:11:50.817Z,1005.9
2018-10-01T04:12:31.186Z,1005.87
2018-10-01T04:13:12.606Z,1005.9
2018-10-01T04:13:52.971Z,1005.9
2018-10-01T04:14:33.312Z,1005.94
2018-10-01T04:15:13.729Z,1005.96
2018-10-01T04:15:54.236Z,1005.98
2018-10-01T04:16:34.639Z,1006.01
2018-10-01T04:17:15.208Z,1005.97
2018-10-01T04:17:55.599Z,1005.92
2018-10-01T04:18:36.371Z,1005.99
2018-10-01T04:19:16.590Z,1005.96
2018-10-01T04:19:57.057Z,1005.97
2018-10-01T04:20:37.419Z,1005.99
2018-10-01T04:21:17.922Z,1005.97
2018-10-01T04:21:58.157Z,1006.03
2018-10-01T04:22:38.626Z,1006.02
2018-10-01T04:23:18.998Z,1005.98
2018-10-01T04:23:59.486Z,1006.02
2018-10-01T04:24:39.883Z,1006.03
2018-10-01T04:25:20.202Z,1006.1
2018-10-01T04:26:01.203Z,1006.05
2018-10-01T04:26:41.640Z,1006.08
2018-10-01T04:27:21.704Z,1006.09
2018-10-01T04:28:02.097Z,1006.07
2018-10-01T05:06:15.246Z,1006.45
2018-10-01T05:07:06.444Z,1006.42
2018-10-01T05:07:58.989Z,1006.46
2018-10-01T05:08:52.336Z,1006.49
2018-10-01T05:09:45.701Z,1006.52
2018-10-01T05:10:38.562Z,1006.53
2018-10-01T05:11:32.639Z,1006.47
2018-10-01T05:13:32.551Z,1006.55
2018-10-01T05:14:12.095Z,1006.56
2018-10-01T05:14:52.784Z,1006.58
2018-10-01T05:15:33.137Z,1006.56
2018-10-01T05:16:13.598Z,1006.65
2018-10-01T05:16:54.009Z,1006.62
2018-10-01T05:17:35.269Z,1006.59
2018-10-01T05:18:16.259Z,1006.64
2018-10-01T05:18:56.701Z,1006.61
2018-10-01T05:19:38.008Z,1006.64
2018-10-01T05:20:18.849Z,1006.65
2018-10-01T05:21:00.432Z,1006.63
2018-10-01T05:21:41.262Z,1006.62
2018-10-01T05:22:22.416Z,1006.63
2018-10-01T05:23:02.739Z,1006.66
2018-10-01T05:23:42.937Z,1006.69
2018-10-01T05:24:23.325Z,1006.66
2018-10-01T05:25:03.806Z,1006.66
2018-10-01T05:25:44.177Z,1006.72
2018-10-01T05:26:25.551Z,1006.71
2018-10-01T05:27:06.204Z,1006.7
2018-10-01T05:27:46.326Z,1006.66
2018-10-01T05:28:26.707Z,1006.71
2018-10-01T05:29:07.247Z,1006.73
2018-10-01T05:29:47.695Z,1006.7
2018-10-01T05:30:28.240Z,1006.7
2018-10-01T05:31:08.800Z,1006.69
2018-10-01T05:31:49.313Z,1006.72
2018-10-01T05:32:29.822Z,1006.66
2018-10-01T05:33:11.664Z,1006.68
2018-10-01T05:33:52.115Z,1006.67
2018-10-01T05:34:32.489Z,1006.61
2018-10-01T05:38:45.964Z,1006.77
2018-10-01T05:39:38.429Z,1006.81
2018-10-01T05:40:32.113Z,1006.8
2018-10-01T05:41:27.070Z,1006.78
2018-10-01T05:43:51.505Z,1006.87
2018-10-01T05:44:31.755Z,1006.87
2018-10-01T05:45:12.168Z,1006.88
2018-10-01T05:45:52.688Z,1006.87
2018-10-01T05:46:33.490Z,1006.86
2018-10-01T05:47:14.915Z,1006.83
2018-10-01T05:47:54.529Z,1006.81
2018-10-01T05:48:35.393Z,1006.83
2018-10-01T05:49:15.890Z,1006.79
2018-10-01T05:49:58.416Z,1006.84
2018-10-01T05:50:40.051Z,1006.85
2018-10-01T05:51:20.191Z,1006.83
2018-10-01T05:52:00.890Z,1006.85
2018-10-01T05:52:41.430Z,1006.87
2018-10-01T05:53:21.844Z,1006.88
2018-10-01T05:54:02.556Z,1006.89
2018-10-01T05:54:44.315Z,1006.85
2018-10-01T05:55:24.849Z,1006.9
2018-10-01T05:56:05.472Z,1006.91
2018-10-01T05:56:46.336Z,1006.9
2018-10-01T05:57:26.704Z,1006.93
2018-10-01T05:58:07.574Z,1006.95
2018-10-01T05:58:49.810Z,1006.95
2018-10-01T05:59:32.191Z,1006.98
2018-10-01T06:00:12.610Z,1006.96
2018-10-01T06:00:53.265Z,1006.97
2018-10-01T06:01:34.356Z,1006.97
2018-10-01T06:02:14.979Z,1006.99
2018-10-01T06:02:55.828Z,1006.98
2018-10-01T06:03:36.797Z,1007.04
2018-10-01T06:04:19.255Z,1007.05
2018-10-01T06:04:59.613Z,1007.02
2018-10-01T06:05:40.113Z,1007.01
2018-10-01T06:06:20.519Z,1007.01
2018-10-01T06:07:00.941Z,1007.02
2018-10-01T06:07:41.694Z,1007
2018-10-01T06:08:23.093Z,1007.01
2018-10-01T06:09:03.440Z,1007.01
2018-10-01T06:09:43.972Z,1007.03
2018-10-01T06:10:24.471Z,1007.04
2018-10-01T06:11:05.000Z,1007.04
2018-10-01T06:11:46.157Z,1007
2018-10-01T06:12:26.700Z,1007.05
2018-10-01T06:13:07.210Z,1007
2018-10-01T06:13:47.617Z,1007.06
2018-10-01T06:14:28.079Z,1007.08
2018-10-01T06:15:08.445Z,1007.06
2018-10-01T06:15:49.451Z,1007.08
2018-10-01T06:16:31.429Z,1007.15
2018-10-01T06:17:11.793Z,1007.07
2018-10-01T06:17:52.279Z,1007.07
2018-10-01T06:18:35.587Z,1007.09
2018-10-01T06:19:16.310Z,1007.05
2018-10-01T06:19:56.677Z,1007.11
2018-10-01T06:20:37.381Z,1007.09
2018-10-01T06:21:19.733Z,1007.08
2018-10-01T06:22:00.522Z,1007.13
2018-10-01T06:22:40.817Z,1007.12
2018-10-01T06:23:21.900Z,1007.12
2018-10-01T06:24:02.221Z,1007.11
2018-10-01T06:24:42.697Z,1007.14
2018-10-01T06:25:23.115Z,1007.16
2018-10-01T06:26:03.809Z,1007.13
2018-10-01T06:26:44.952Z,1007.2
2018-10-01T06:27:26.354Z,1007.16
2018-10-01T06:28:11.026Z,1007.19
2018-10-01T06:28:56.624Z,1007.21
2018-10-01T06:29:39.067Z,1007.15
2018-10-01T06:30:19.878Z,1007.25
2018-10-01T06:31:00.505Z,1007.22
2018-10-01T06:31:41.070Z,1007.23
2018-10-01T06:32:21.764Z,1007.24
2018-10-01T06:33:03.255Z,1007.26
2018-10-01T06:33:46.626Z,1007.29
2018-10-01T06:34:31.036Z,1007.31
2018-10-01T06:35:12.777Z,1007.29
2018-10-01T06:37:37.850Z,1007.3
2018-10-01T06:38:37.303Z,1007.28
2018-10-01T06:39:32.019Z,1007.34
2018-10-01T06:40:48.064Z,1007.24
2018-10-01T07:00:55.285Z,1007.4
2018-10-01T07:01:53.619Z,1007.51
2018-10-01T07:02:49.014Z,1007.49
2018-10-01T07:03:44.188Z,1007.54
2018-10-01T07:04:40.686Z,1007.51
2018-10-01T07:05:36.018Z,1007.56
2018-10-01T07:06:31.920Z,1007.55
2018-10-01T07:07:22.289Z,1007.53
2018-10-01T07:08:03.099Z,1007.55
2018-10-01T07:08:45.691Z,1007.53
2018-10-01T07:09:32.337Z,1007.58
2018-10-01T07:10:13.230Z,1007.55
2018-10-01T07:12:48.518Z,1007.6
2018-10-01T07:13:28.652Z,1007.59
2018-10-01T07:14:10.058Z,1007.66
2018-10-01T07:24:45.527Z,1007.65
2018-10-01T07:29:05.213Z,1007.86
2018-10-01T07:32:54.017Z,1007.88
2018-10-01T07:34:19.547Z,1007.93
2018-10-01T07:36:57.153Z,1008.02
2018-10-01T07:38:54.648Z,1008.07
2018-10-01T07:42:19.270Z,1008.09
2018-10-01T07:43:05.764Z,1008.07
2018-10-01T07:43:47.868Z,1008.15
2018-10-01T07:44:34.690Z,1008.13
2018-10-01T07:45:17.454Z,1008.03
2018-10-01T07:46:03.615Z,1008.1
2018-10-01T07:46:48.972Z,1008.17
2018-10-01T07:47:34.397Z,1008.14
2018-10-01T07:48:19.593Z,1008.2
2018-10-01T07:49:01.880Z,1008.18
2018-10-01T07:49:45.259Z,1008.23
2018-10-01T07:50:25.723Z,1008.19
2018-10-01T07:51:08.094Z,1008.2
2018-10-01T07:51:49.873Z,1008.15
2018-10-01T07:52:33.210Z,1008.18
2018-10-01T07:53:14.943Z,1008.16
2018-10-01T07:55:49.452Z,1008.26
2018-10-01T07:56:50.058Z,1008.31
2018-10-01T07:57:45.598Z,1008.29
2018-10-01T07:58:52.516Z,1008.33
2018-10-01T07:59:45.695Z,1008.35
2018-10-01T08:00:41.253Z,1008.34
2018-10-01T08:01:37.279Z,1008.36
2018-10-01T08:03:42.282Z,1008.32
2018-10-01T08:04:23.476Z,1008.29
2018-10-01T08:05:04.170Z,1008.37
2018-10-01T08:05:44.920Z,1008.42
2018-10-01T08:06:25.276Z,1008.43
2018-10-01T08:07:06.600Z,1008.44
2018-10-01T08:07:46.347Z,1008.39
2018-10-01T08:08:27.088Z,1008.46
2018-10-01T08:09:07.480Z,1008.45
2018-10-01T08:09:47.918Z,1008.45
2018-10-01T08:10:28.601Z,1008.43
2018-10-01T08:11:09.529Z,1008.42
2018-10-01T08:11:50.416Z,1008.49
2018-10-01T08:12:30.886Z,1008.5
2018-10-01T08:13:12.284Z,1008.51
2018-10-01T08:13:52.135Z,1008.5
2018-10-01T08:14:33.342Z,1008.52
2018-10-01T08:15:14.976Z,1008.59
2018-10-01T08:15:56.523Z,1008.51
2018-10-01T08:16:38.332Z,1008.14
2018-10-01T08:17:18.672Z,1008.44
2018-10-01T08:17:59.224Z,1008.49
2018-10-01T08:18:39.938Z,1008.49
2018-10-01T08:19:20.309Z,1008.55
2018-10-01T08:20:00.825Z,1008.58
2018-10-01T08:20:41.585Z,1008.58
2018-10-01T08:21:22.743Z,1008.6
2018-10-01T08:22:03.213Z,1008.61
2018-10-01T08:22:43.838Z,1008.6
2018-10-01T08:23:24.385Z,1008.65
2018-10-01T08:24:04.740Z,1008.68
2018-10-01T08:24:45.189Z,1008.64
2018-10-01T08:25:25.604Z,1008.68
2018-10-01T08:26:06.223Z,1008.71
2018-10-01T08:26:46.671Z,1008.66
2018-10-01T08:27:27.429Z,1008.67
2018-10-01T08:28:07.899Z,1008.69
2018-10-01T08:28:49.301Z,1008.75
2018-10-01T08:29:29.839Z,1008.75
2018-10-01T08:30:12.221Z,1008.8
2018-10-01T08:30:57.312Z,1008.77
2018-10-01T08:31:40.703Z,1008.79
2018-10-01T08:32:21.459Z,1008.8
2018-10-01T08:33:02.321Z,1008.8
2018-10-01T08:33:43.565Z,1008.76
2018-10-01T08:34:25.203Z,1008.78
2018-10-01T08:35:05.657Z,1008.8
2018-10-01T08:35:45.994Z,1008.84
2018-10-01T08:36:26.765Z,1008.72
2018-10-01T08:37:07.234Z,1008.76
2018-10-01T08:40:27.353Z,1008.83
2018-10-01T08:41:07.861Z,1008.87
2018-10-01T08:41:48.890Z,1008.85
2018-10-01T08:42:29.501Z,1008.84
2018-10-01T08:43:09.994Z,1008.89
2018-10-01T08:43:50.595Z,1008.89
2018-10-01T08:44:31.592Z,1008.93
2018-10-01T08:45:12.821Z,1008.92
2018-10-01T08:45:53.974Z,1008.89
2018-10-01T08:46:34.057Z,1008.97
2018-10-01T08:47:14.761Z,1008.89
2018-10-01T08:47:55.171Z,1008.95
2018-10-01T08:48:35.785Z,1008.97
2018-10-01T08:49:16.406Z,1009
2018-10-01T08:49:57.337Z,1008.98
2018-10-01T08:50:37.794Z,1008.97
2018-10-01T08:51:19.478Z,1009
2018-10-01T08:52:00.098Z,1009.01
2018-10-01T08:52:40.914Z,1008.96
2018-10-01T08:53:22.559Z,1008.98
2018-10-01T08:54:03.041Z,1008.97
2018-10-01T08:54:43.873Z,1008.98
2018-10-01T08:55:24.290Z,1008.94
2018-10-01T08:56:05.871Z,1008.93
2018-10-01T08:56:46.972Z,1009.06
2018-10-01T08:57:28.378Z,1009.05
2018-10-01T08:58:08.864Z,1009.04
2018-10-01T08:58:50.098Z,1008.97
2018-10-01T08:59:31.147Z,1008.93
2018-10-01T09:00:12.248Z,1009.03
2018-10-01T09:00:52.781Z,1009.05
2018-10-01T09:01:33.693Z,1009.06
2018-10-01T09:02:14.147Z,1009.03
2018-10-01T09:02:56.605Z,1009.07
2018-10-01T09:03:37.103Z,1009.08
2018-10-01T09:04:18.300Z,1009.06
2018-10-01T09:04:59.435Z,1009.11
2018-10-01T09:05:40.915Z,1009.09
2018-10-01T09:06:21.505Z,1009.11
2018-10-01T09:07:02.200Z,1009.15
2018-10-01T09:07:44.350Z,1009.18
2018-10-01T09:08:25.962Z,1009.15
2018-10-01T09:09:06.895Z,1009.18
2018-10-01T09:09:49.435Z,1009.15
2018-10-01T09:10:33.423Z,1009.18
2018-10-01T09:11:18.216Z,1009.21
2018-10-01T09:12:03.705Z,1009.18
2018-10-01T09:12:42.005Z,1009.14
2018-10-01T09:13:22.856Z,1009.16
2018-10-01T09:14:04.219Z,1009.22
2018-10-01T09:14:46.153Z,1009.2
2018-10-01T09:15:27.257Z,1009.21
2018-10-01T09:16:08.696Z,1009.23
2018-10-01T09:16:49.445Z,1009.23
2018-10-01T09:17:30.938Z,1009.16
2018-10-01T09:18:11.587Z,1009.21
2018-10-01T09:18:52.953Z,1009.15
2018-10-01T09:19:34.401Z,1009.27
2018-10-01T09:20:15.538Z,1009.24
2018-10-01T09:20:57.515Z,1009.26
2018-10-01T09:21:39.623Z,1009.3
2018-10-01T09:22:20.090Z,1009.26
2018-10-01T09:23:02.881Z,1009.24
2018-10-01T09:23:44.079Z,1009.23
2018-10-01T09:24:25.931Z,1009.24
2018-10-01T09:25:06.408Z,1009.27
2018-10-01T09:25:48.047Z,1009.26
2018-10-01T09:26:28.512Z,1009.29
2018-10-01T09:27:09.284Z,1009.28
2018-10-01T09:27:50.453Z,1009.32
2018-10-01T09:28:31.026Z,1009.33
2018-10-01T09:29:12.181Z,1009.34
2018-10-01T09:29:53.901Z,1009.31
2018-10-01T09:30:34.457Z,1009.35
2018-10-01T09:31:17.353Z,1009.39
2018-10-01T09:31:59.439Z,1009.41
2018-10-01T09:33:20.541Z,1009.38
2018-10-01T09:34:01.979Z,1009.37
2018-10-01T09:34:42.973Z,1009.42
2018-10-01T09:35:22.791Z,1009.44
2018-10-01T09:36:03.494Z,1009.46
2018-10-01T09:36:44.906Z,1009.36
2018-10-01T09:37:26.146Z,1009.38
2018-10-01T09:38:06.985Z,1009.35
2018-10-01T09:38:49.561Z,1009.26
2018-10-01T09:39:28.583Z,1009.3
2018-10-01T09:40:10.406Z,1009.3
2018-10-01T09:40:52.585Z,1009.34
2018-10-01T09:41:34.416Z,1009.3
2018-10-01T09:42:14.974Z,1009.34
2018-10-01T09:42:56.756Z,1009.38
2018-10-01T09:43:37.930Z,1009.35
2018-10-01T09:44:17.746Z,1009.4
2018-10-01T09:44:59.532Z,1009.4
2018-10-01T09:45:42.224Z,1009.35
2018-10-01T09:46:22.792Z,1009.41
2018-10-01T09:47:04.340Z,1009.38
2018-10-01T09:47:45.931Z,1009.39
2018-10-01T09:48:25.999Z,1009.32
2018-10-01T09:49:07.460Z,1009.29
2018-10-01T09:49:47.723Z,1009.36
2018-10-01T09:50:28.580Z,1009.36
2018-10-01T09:51:09.653Z,1009.36
2018-10-01T09:51:50.751Z,1009.31
2018-10-01T09:52:31.589Z,1009.3
2018-10-01T09:53:12.568Z,1009.3
2018-10-01T09:53:55.014Z,1009.31
2018-10-01T09:54:35.825Z,1009.32
2018-10-01T09:55:16.718Z,1009.38
2018-10-01T09:55:58.081Z,1009.39
2018-10-01T09:56:39.140Z,1009.38
2018-10-01T09:57:20.070Z,1009.35
2018-10-01T09:58:00.779Z,1009.36
2018-10-01T09:58:41.402Z,1009.34